sensor_id;sensor_type;location;lat;lon;timestamp;P1;durP1;ratioP1;P2;durP2;ratioP2
49858;SDS011;35756;52.346;13.622;2022-09-09T00:00:14;8.98;;;6.38;;
49858;SDS011;35756;52.346;13.622;2022-09-09T00:02:54;7.72;;;5.80;;
49858;SDS011;35756;52.346;13.622;2022-09-09T00:05:51;8.10;;;5.55;;
49858;SDS011;35756;52.346;13.622;2022-09-09T00:08:38;8.77;;;5.82;;
49858;SDS011;35756;52.346;13.622;2022-09-09T00:11:11;9.05;;;5.93;;
49858;SDS011;35756;52.346;13.622;2022-09-09T00:13:39;7.55;;;6.28;;
49858;SDS011;35756;52.346;13.622;2022-09-09T00:16:15;7.43;;;5.53;;
49858;SDS011;35756;52.346;13.622;2022-09-09T00:21:35;10.70;;;6.13;;
49858;SDS011;35756;52.346;13.622;2022-09-09T00:24:11;7.07;;;5.85;;
49858;SDS011;35756;52.346;13.622;2022-09-09T00:26:45;10.82;;;6.63;;
49858;SDS011;35756;52.346;13.622;2022-09-09T00:29:22;11.15;;;6.45;;
49858;SDS011;35756;52.346;13.622;2022-09-09T00:31:55;8.52;;;5.78;;
49858;SDS011;35756;52.346;13.622;2022-09-09T00:34:22;11.10;;;6.60;;
49858;SDS011;35756;52.346;13.622;2022-09-09T00:36:49;7.07;;;5.13;;
49858;SDS011;35756;52.346;13.622;2022-09-09T00:42:15;9.88;;;6.13;;
49858;SDS011;35756;52.346;13.622;2022-09-09T00:44:50;17.90;;;6.45;;
49858;SDS011;35756;52.346;13.622;2022-09-09T00:50:03;8.07;;;5.15;;
49858;SDS011;35756;52.346;13.622;2022-09-09T00:55:41;6.65;;;5.63;;
49858;SDS011;35756;52.346;13.622;2022-09-09T00:58:21;7.43;;;6.35;;
49858;SDS011;35756;52.346;13.622;2022-09-09T01:00:49;8.10;;;6.40;;
49858;SDS011;35756;52.346;13.622;2022-09-09T01:06:11;7.40;;;6.15;;
49858;SDS011;35756;52.346;13.622;2022-09-09T01:14:32;8.15;;;6.55;;
49858;SDS011;35756;52.346;13.622;2022-09-09T01:17:45;13.10;;;7.03;;
49858;SDS011;35756;52.346;13.622;2022-09-09T01:25:28;10.52;;;7.88;;
49858;SDS011;35756;52.346;13.622;2022-09-09T01:28:09;10.05;;;7.20;;
49858;SDS011;35756;52.346;13.622;2022-09-09T01:30:37;9.88;;;7.90;;
49858;SDS011;35756;52.346;13.622;2022-09-09T01:33:04;10.73;;;6.70;;
49858;SDS011;35756;52.346;13.622;2022-09-09T01:37:58;10.38;;;7.68;;
49858;SDS011;35756;52.346;13.622;2022-09-09T01:40:24;10.15;;;7.80;;
49858;SDS011;35756;52.346;13.622;2022-09-09T01:42:49;12.95;;;7.18;;
49858;SDS011;35756;52.346;13.622;2022-09-09T01:45:15;10.98;;;6.95;;
49858;SDS011;35756;52.346;13.622;2022-09-09T01:47:40;7.90;;;5.82;;
49858;SDS011;35756;52.346;13.622;2022-09-09T01:50:06;10.02;;;7.85;;
49858;SDS011;35756;52.346;13.622;2022-09-09T01:52:33;9.82;;;7.72;;
49858;SDS011;35756;52.346;13.622;2022-09-09T01:55:00;7.80;;;7.00;;
49858;SDS011;35756;52.346;13.622;2022-09-09T01:57:44;10.98;;;7.22;;
49858;SDS011;35756;52.346;13.622;2022-09-09T02:00:16;10.57;;;7.47;;
49858;SDS011;35756;52.346;13.622;2022-09-09T02:05:34;9.15;;;7.45;;
49858;SDS011;35756;52.346;13.622;2022-09-09T02:08:09;9.75;;;8.00;;
49858;SDS011;35756;52.346;13.622;2022-09-09T02:13:14;10.77;;;8.32;;
49858;SDS011;35756;52.346;13.622;2022-09-09T02:15:52;10.10;;;7.47;;
49858;SDS011;35756;52.346;13.622;2022-09-09T02:18:23;10.48;;;7.95;;
49858;SDS011;35756;52.346;13.622;2022-09-09T02:20:51;12.85;;;8.13;;
49858;SDS011;35756;52.346;13.622;2022-09-09T02:23:18;11.55;;;7.13;;
49858;SDS011;35756;52.346;13.622;2022-09-09T02:25:44;10.52;;;8.30;;
49858;SDS011;35756;52.346;13.622;2022-09-09T02:28:11;10.57;;;8.30;;
49858;SDS011;35756;52.346;13.622;2022-09-09T02:30:37;10.88;;;8.43;;
49858;SDS011;35756;52.346;13.622;2022-09-09T02:33:04;13.00;;;8.77;;
49858;SDS011;35756;52.346;13.622;2022-09-09T02:35:31;11.63;;;9.18;;
49858;SDS011;35756;52.346;13.622;2022-09-09T02:37:58;13.27;;;8.10;;
49858;SDS011;35756;52.346;13.622;2022-09-09T02:40:26;11.77;;;8.63;;
49858;SDS011;35756;52.346;13.622;2022-09-09T02:42:51;11.65;;;9.52;;
49858;SDS011;35756;52.346;13.622;2022-09-09T02:45:19;10.40;;;9.32;;
49858;SDS011;35756;52.346;13.622;2022-09-09T02:47:59;20.55;;;10.35;;
49858;SDS011;35756;52.346;13.622;2022-09-09T02:50:34;11.85;;;8.10;;
49858;SDS011;35756;52.346;13.622;2022-09-09T02:55:45;13.30;;;9.82;;
49858;SDS011;35756;52.346;13.622;2022-09-09T02:58:14;10.25;;;8.68;;
49858;SDS011;35756;52.346;13.622;2022-09-09T03:00:45;12.75;;;9.32;;
49858;SDS011;35756;52.346;13.622;2022-09-09T03:03:12;9.77;;;7.95;;
49858;SDS011;35756;52.346;13.622;2022-09-09T03:05:38;10.82;;;8.60;;
49858;SDS011;35756;52.346;13.622;2022-09-09T03:08:03;13.55;;;8.65;;
49858;SDS011;35756;52.346;13.622;2022-09-09T03:10:30;10.75;;;8.45;;
49858;SDS011;35756;52.346;13.622;2022-09-09T03:12:56;11.40;;;8.98;;
49858;SDS011;35756;52.346;13.622;2022-09-09T03:15:21;11.32;;;8.13;;
49858;SDS011;35756;52.346;13.622;2022-09-09T03:17:47;11.23;;;7.78;;
49858;SDS011;35756;52.346;13.622;2022-09-09T03:20:12;11.45;;;8.52;;
49858;SDS011;35756;52.346;13.622;2022-09-09T03:22:38;10.88;;;9.00;;
49858;SDS011;35756;52.346;13.622;2022-09-09T03:25:03;10.85;;;8.27;;
49858;SDS011;35756;52.346;13.622;2022-09-09T03:27:29;11.93;;;8.70;;
49858;SDS011;35756;52.346;13.622;2022-09-09T03:29:54;12.05;;;8.30;;
49858;SDS011;35756;52.346;13.622;2022-09-09T03:32:21;10.18;;;8.43;;
49858;SDS011;35756;52.346;13.622;2022-09-09T03:34:47;8.38;;;7.45;;
49858;SDS011;35756;52.346;13.622;2022-09-09T03:37:14;10.95;;;8.20;;
49858;SDS011;35756;52.346;13.622;2022-09-09T03:39:39;9.38;;;7.97;;
49858;SDS011;35756;52.346;13.622;2022-09-09T03:42:05;13.27;;;8.25;;
49858;SDS011;35756;52.346;13.622;2022-09-09T03:44:30;9.98;;;7.75;;
49858;SDS011;35756;52.346;13.622;2022-09-09T03:46:56;12.30;;;8.18;;
49858;SDS011;35756;52.346;13.622;2022-09-09T03:49:21;11.38;;;8.55;;
49858;SDS011;35756;52.346;13.622;2022-09-09T03:51:47;9.38;;;7.07;;
49858;SDS011;35756;52.346;13.622;2022-09-09T03:54:12;10.93;;;7.20;;
49858;SDS011;35756;52.346;13.622;2022-09-09T03:56:38;8.55;;;7.03;;
49858;SDS011;35756;52.346;13.622;2022-09-09T03:59:04;10.95;;;7.85;;
49858;SDS011;35756;52.346;13.622;2022-09-09T04:01:29;9.80;;;7.03;;
49858;SDS011;35756;52.346;13.622;2022-09-09T04:03:54;9.80;;;6.53;;
49858;SDS011;35756;52.346;13.622;2022-09-09T04:06:22;8.73;;;6.88;;
49858;SDS011;35756;52.346;13.622;2022-09-09T04:08:48;11.43;;;7.22;;
49858;SDS011;35756;52.346;13.622;2022-09-09T04:11:14;10.07;;;7.50;;
49858;SDS011;35756;52.346;13.622;2022-09-09T04:13:40;10.85;;;6.63;;
49858;SDS011;35756;52.346;13.622;2022-09-09T04:16:06;8.25;;;6.32;;
49858;SDS011;35756;52.346;13.622;2022-09-09T04:18:33;9.07;;;6.90;;
49858;SDS011;35756;52.346;13.622;2022-09-09T04:20:59;10.88;;;7.25;;
49858;SDS011;35756;52.346;13.622;2022-09-09T04:23:25;9.60;;;6.88;;
49858;SDS011;35756;52.346;13.622;2022-09-09T04:25:52;10.45;;;6.68;;
49858;SDS011;35756;52.346;13.622;2022-09-09T04:28:19;7.95;;;6.57;;
49858;SDS011;35756;52.346;13.622;2022-09-09T04:30:46;8.35;;;7.22;;
49858;SDS011;35756;52.346;13.622;2022-09-09T04:33:12;10.57;;;7.40;;
49858;SDS011;35756;52.346;13.622;2022-09-09T04:35:38;11.45;;;7.10;;
49858;SDS011;35756;52.346;13.622;2022-09-09T04:38:04;10.35;;;7.40;;
49858;SDS011;35756;52.346;13.622;2022-09-09T04:40:31;7.88;;;7.07;;
49858;SDS011;35756;52.346;13.622;2022-09-09T04:42:58;9.07;;;6.88;;
49858;SDS011;35756;52.346;13.622;2022-09-09T04:45:24;10.50;;;7.43;;
49858;SDS011;35756;52.346;13.622;2022-09-09T04:47:49;13.80;;;7.13;;
49858;SDS011;35756;52.346;13.622;2022-09-09T04:50:14;10.25;;;8.23;;
49858;SDS011;35756;52.346;13.622;2022-09-09T04:52:40;9.35;;;7.57;;
49858;SDS011;35756;52.346;13.622;2022-09-09T04:55:06;9.85;;;7.57;;
49858;SDS011;35756;52.346;13.622;2022-09-09T04:57:31;9.18;;;7.07;;
49858;SDS011;35756;52.346;13.622;2022-09-09T04:59:58;10.30;;;7.43;;
49858;SDS011;35756;52.346;13.622;2022-09-09T05:02:24;11.80;;;7.45;;
49858;SDS011;35756;52.346;13.622;2022-09-09T05:04:50;13.68;;;8.18;;
49858;SDS011;35756;52.346;13.622;2022-09-09T05:07:15;11.27;;;8.10;;
49858;SDS011;35756;52.346;13.622;2022-09-09T05:09:40;9.50;;;7.68;;
49858;SDS011;35756;52.346;13.622;2022-09-09T05:12:06;10.32;;;8.20;;
49858;SDS011;35756;52.346;13.622;2022-09-09T05:14:31;12.60;;;8.65;;
49858;SDS011;35756;52.346;13.622;2022-09-09T05:16:56;8.80;;;7.00;;
49858;SDS011;35756;52.346;13.622;2022-09-09T05:19:22;10.57;;;7.50;;
49858;SDS011;35756;52.346;13.622;2022-09-09T05:21:48;10.70;;;8.13;;
49858;SDS011;35756;52.346;13.622;2022-09-09T05:24:13;13.43;;;7.90;;
49858;SDS011;35756;52.346;13.622;2022-09-09T05:26:39;13.85;;;9.00;;
49858;SDS011;35756;52.346;13.622;2022-09-09T05:29:04;8.93;;;7.72;;
49858;SDS011;35756;52.346;13.622;2022-09-09T05:31:31;8.90;;;7.50;;
49858;SDS011;35756;52.346;13.622;2022-09-09T05:33:56;11.05;;;7.88;;
49858;SDS011;35756;52.346;13.622;2022-09-09T05:36:21;8.45;;;7.18;;
49858;SDS011;35756;52.346;13.622;2022-09-09T05:38:47;11.00;;;7.85;;
49858;SDS011;35756;52.346;13.622;2022-09-09T05:41:14;10.45;;;8.38;;
49858;SDS011;35756;52.346;13.622;2022-09-09T05:43:43;11.63;;;8.77;;
49858;SDS011;35756;52.346;13.622;2022-09-09T05:46:10;17.55;;;8.38;;
49858;SDS011;35756;52.346;13.622;2022-09-09T05:48:38;10.38;;;8.50;;
49858;SDS011;35756;52.346;13.622;2022-09-09T05:51:11;10.55;;;8.32;;
49858;SDS011;35756;52.346;13.622;2022-09-09T05:53:37;9.93;;;7.60;;
49858;SDS011;35756;52.346;13.622;2022-09-09T05:58:30;12.23;;;7.68;;
49858;SDS011;35756;52.346;13.622;2022-09-09T06:03:28;9.85;;;8.02;;
49858;SDS011;35756;52.346;13.622;2022-09-09T06:05:57;10.82;;;7.57;;
49858;SDS011;35756;52.346;13.622;2022-09-09T06:08:23;12.05;;;7.60;;
49858;SDS011;35756;52.346;13.622;2022-09-09T06:10:49;13.05;;;6.95;;
49858;SDS011;35756;52.346;13.622;2022-09-09T06:13:14;14.40;;;7.38;;
49858;SDS011;35756;52.346;13.622;2022-09-09T06:15:39;9.50;;;6.57;;
49858;SDS011;35756;52.346;13.622;2022-09-09T06:18:14;10.18;;;6.50;;
49858;SDS011;35756;52.346;13.622;2022-09-09T06:20:42;10.02;;;7.32;;
49858;SDS011;35756;52.346;13.622;2022-09-09T06:23:08;8.23;;;5.45;;
49858;SDS011;35756;52.346;13.622;2022-09-09T06:25:33;6.95;;;4.82;;
49858;SDS011;35756;52.346;13.622;2022-09-09T06:27:59;8.38;;;4.60;;
49858;SDS011;35756;52.346;13.622;2022-09-09T06:30:24;6.30;;;4.05;;
49858;SDS011;35756;52.346;13.622;2022-09-09T06:32:49;6.65;;;4.35;;
49858;SDS011;35756;52.346;13.622;2022-09-09T06:35:15;12.45;;;4.15;;
49858;SDS011;35756;52.346;13.622;2022-09-09T06:37:44;7.80;;;3.70;;
49858;SDS011;35756;52.346;13.622;2022-09-09T06:40:10;4.13;;;3.25;;
49858;SDS011;35756;52.346;13.622;2022-09-09T06:42:35;6.78;;;3.53;;
49858;SDS011;35756;52.346;13.622;2022-09-09T06:45:01;7.07;;;3.92;;
49858;SDS011;35756;52.346;13.622;2022-09-09T06:47:27;11.68;;;3.40;;
49858;SDS011;35756;52.346;13.622;2022-09-09T06:49:53;6.28;;;3.42;;
49858;SDS011;35756;52.346;13.622;2022-09-09T06:52:18;6.57;;;3.65;;
49858;SDS011;35756;52.346;13.622;2022-09-09T06:54:44;5.35;;;3.08;;
49858;SDS011;35756;52.346;13.622;2022-09-09T06:57:10;9.68;;;3.65;;
49858;SDS011;35756;52.346;13.622;2022-09-09T06:59:35;5.57;;;3.40;;
49858;SDS011;35756;52.346;13.622;2022-09-09T07:02:01;8.77;;;3.50;;
49858;SDS011;35756;52.346;13.622;2022-09-09T07:04:26;5.57;;;3.70;;
49858;SDS011;35756;52.346;13.622;2022-09-09T07:06:51;6.70;;;3.30;;
49858;SDS011;35756;52.346;13.622;2022-09-09T07:09:17;6.13;;;3.20;;
49858;SDS011;35756;52.346;13.622;2022-09-09T07:11:44;7.38;;;3.20;;
49858;SDS011;35756;52.346;13.622;2022-09-09T07:14:11;10.00;;;3.75;;
49858;SDS011;35756;52.346;13.622;2022-09-09T07:16:39;5.88;;;3.20;;
49858;SDS011;35756;52.346;13.622;2022-09-09T07:19:08;5.88;;;3.15;;
49858;SDS011;35756;52.346;13.622;2022-09-09T07:21:34;5.55;;;3.42;;
49858;SDS011;35756;52.346;13.622;2022-09-09T07:23:59;5.95;;;3.42;;
49858;SDS011;35756;52.346;13.622;2022-09-09T07:26:26;5.18;;;2.83;;
49858;SDS011;35756;52.346;13.622;2022-09-09T07:28:53;7.15;;;2.92;;
49858;SDS011;35756;52.346;13.622;2022-09-09T07:31:26;4.65;;;2.75;;
49858;SDS011;35756;52.346;13.622;2022-09-09T07:33:52;5.20;;;2.85;;
49858;SDS011;35756;52.346;13.622;2022-09-09T07:36:20;5.20;;;2.55;;
49858;SDS011;35756;52.346;13.622;2022-09-09T07:38:47;4.45;;;2.70;;
49858;SDS011;35756;52.346;13.622;2022-09-09T07:41:17;4.55;;;2.88;;
49858;SDS011;35756;52.346;13.622;2022-09-09T07:43:45;4.53;;;2.60;;
49858;SDS011;35756;52.346;13.622;2022-09-09T07:46:11;6.65;;;2.47;;
49858;SDS011;35756;52.346;13.622;2022-09-09T07:48:37;5.10;;;2.97;;
49858;SDS011;35756;52.346;13.622;2022-09-09T07:51:04;5.05;;;2.63;;
49858;SDS011;35756;52.346;13.622;2022-09-09T07:53:34;4.60;;;2.22;;
49858;SDS011;35756;52.346;13.622;2022-09-09T07:56:04;5.75;;;2.85;;
49858;SDS011;35756;52.346;13.622;2022-09-09T07:58:31;5.57;;;2.47;;
49858;SDS011;35756;52.346;13.622;2022-09-09T08:00:56;5.15;;;2.63;;
49858;SDS011;35756;52.346;13.622;2022-09-09T08:03:22;4.47;;;2.30;;
49858;SDS011;35756;52.346;13.622;2022-09-09T08:05:48;7.10;;;2.10;;
49858;SDS011;35756;52.346;13.622;2022-09-09T08:08:13;4.93;;;2.45;;
49858;SDS011;35756;52.346;13.622;2022-09-09T08:10:39;4.45;;;2.53;;
49858;SDS011;35756;52.346;13.622;2022-09-09T08:13:04;6.57;;;2.30;;
49858;SDS011;35756;52.346;13.622;2022-09-09T08:15:30;4.72;;;2.13;;
49858;SDS011;35756;52.346;13.622;2022-09-09T08:17:57;4.35;;;2.30;;
49858;SDS011;35756;52.346;13.622;2022-09-09T08:20:22;4.38;;;2.45;;
49858;SDS011;35756;52.346;13.622;2022-09-09T08:22:48;4.10;;;2.22;;
49858;SDS011;35756;52.346;13.622;2022-09-09T08:25:14;7.75;;;2.30;;
49858;SDS011;35756;52.346;13.622;2022-09-09T08:27:40;5.00;;;2.28;;
49858;SDS011;35756;52.346;13.622;2022-09-09T08:30:05;6.13;;;2.55;;
49858;SDS011;35756;52.346;13.622;2022-09-09T08:32:31;5.15;;;2.65;;
49858;SDS011;35756;52.346;13.622;2022-09-09T08:34:56;4.75;;;2.60;;
49858;SDS011;35756;52.346;13.622;2022-09-09T08:37:22;6.72;;;2.60;;
49858;SDS011;35756;52.346;13.622;2022-09-09T08:39:47;3.15;;;2.47;;
49858;SDS011;35756;52.346;13.622;2022-09-09T08:42:35;6.25;;;2.45;;
49858;SDS011;35756;52.346;13.622;2022-09-09T08:45:12;4.95;;;2.20;;
49858;SDS011;35756;52.346;13.622;2022-09-09T08:47:51;6.82;;;2.70;;
49858;SDS011;35756;52.346;13.622;2022-09-09T08:50:21;9.25;;;3.38;;
49858;SDS011;35756;52.346;13.622;2022-09-09T08:55:48;5.10;;;3.05;;
49858;SDS011;35756;52.346;13.622;2022-09-09T09:03:36;4.20;;;2.30;;
49858;SDS011;35756;52.346;13.622;2022-09-09T09:08:58;4.22;;;2.08;;
49858;SDS011;35756;52.346;13.622;2022-09-09T09:11:35;4.70;;;2.00;;
49858;SDS011;35756;52.346;13.622;2022-09-09T09:14:03;4.53;;;1.70;;
49858;SDS011;35756;52.346;13.622;2022-09-09T09:16:48;2.85;;;1.83;;
49858;SDS011;35756;52.346;13.622;2022-09-09T09:19:21;6.53;;;2.10;;
49858;SDS011;35756;52.346;13.622;2022-09-09T09:24:19;4.13;;;1.90;;
49858;SDS011;35756;52.346;13.622;2022-09-09T09:26:47;4.72;;;2.03;;
49858;SDS011;35756;52.346;13.622;2022-09-09T09:29:13;4.78;;;1.92;;
49858;SDS011;35756;52.346;13.622;2022-09-09T09:32:14;3.97;;;1.70;;
49858;SDS011;35756;52.346;13.622;2022-09-09T09:34:32;3.50;;;1.70;;
49858;SDS011;35756;52.346;13.622;2022-09-09T09:36:58;3.55;;;1.90;;
49858;SDS011;35756;52.346;13.622;2022-09-09T09:39:32;5.82;;;2.10;;
49858;SDS011;35756;52.346;13.622;2022-09-09T09:42:09;3.92;;;1.90;;
49858;SDS011;35756;52.346;13.622;2022-09-09T09:44:39;3.10;;;1.70;;
49858;SDS011;35756;52.346;13.622;2022-09-09T09:47:26;4.78;;;1.83;;
49858;SDS011;35756;52.346;13.622;2022-09-09T09:49:55;3.03;;;1.90;;
49858;SDS011;35756;52.346;13.622;2022-09-09T09:52:22;2.47;;;1.50;;
49858;SDS011;35756;52.346;13.622;2022-09-09T09:54:49;5.65;;;1.80;;
49858;SDS011;35756;52.346;13.622;2022-09-09T09:57:15;4.85;;;1.75;;
49858;SDS011;35756;52.346;13.622;2022-09-09T09:59:41;3.67;;;1.77;;
49858;SDS011;35756;52.346;13.622;2022-09-09T10:02:18;5.55;;;1.90;;
49858;SDS011;35756;52.346;13.622;2022-09-09T10:05:01;2.97;;;1.75;;
49858;SDS011;35756;52.346;13.622;2022-09-09T10:07:46;6.50;;;1.90;;
49858;SDS011;35756;52.346;13.622;2022-09-09T10:10:20;4.25;;;1.85;;
49858;SDS011;35756;52.346;13.622;2022-09-09T10:16:28;4.68;;;1.70;;
49858;SDS011;35756;52.346;13.622;2022-09-09T10:19:18;4.70;;;1.90;;
49858;SDS011;35756;52.346;13.622;2022-09-09T10:22:12;4.47;;;1.55;;
49858;SDS011;35756;52.346;13.622;2022-09-09T10:24:50;6.10;;;1.77;;
49858;SDS011;35756;52.346;13.622;2022-09-09T10:27:37;5.22;;;1.90;;
49858;SDS011;35756;52.346;13.622;2022-09-09T10:36:23;2.40;;;1.60;;
49858;SDS011;35756;52.346;13.622;2022-09-09T10:39:33;4.53;;;1.90;;
49858;SDS011;35756;52.346;13.622;2022-09-09T10:44:43;4.70;;;1.80;;
49858;SDS011;35756;52.346;13.622;2022-09-09T10:47:41;4.07;;;1.73;;
49858;SDS011;35756;52.346;13.622;2022-09-09T10:53:08;4.85;;;2.05;;
49858;SDS011;35756;52.346;13.622;2022-09-09T10:55:45;5.40;;;1.70;;
49858;SDS011;35756;52.346;13.622;2022-09-09T10:58:18;5.00;;;2.03;;
49858;SDS011;35756;52.346;13.622;2022-09-09T11:00:47;5.47;;;1.70;;
49858;SDS011;35756;52.346;13.622;2022-09-09T11:03:22;3.55;;;1.77;;
49858;SDS011;35756;52.346;13.622;2022-09-09T11:05:51;5.63;;;2.10;;
49858;SDS011;35756;52.346;13.622;2022-09-09T11:08:19;5.25;;;2.65;;
49858;SDS011;35756;52.346;13.622;2022-09-09T11:10:59;3.63;;;1.58;;
49858;SDS011;35756;52.346;13.622;2022-09-09T11:13:48;4.63;;;1.70;;
49858;SDS011;35756;52.346;13.622;2022-09-09T11:16:29;4.95;;;1.60;;
49858;SDS011;35756;52.346;13.622;2022-09-09T11:21:50;6.27;;;1.80;;
49858;SDS011;35756;52.346;13.622;2022-09-09T11:24:24;4.85;;;1.85;;
49858;SDS011;35756;52.346;13.622;2022-09-09T11:26:53;3.13;;;1.40;;
49858;SDS011;35756;52.346;13.622;2022-09-09T11:29:32;4.40;;;1.50;;
49858;SDS011;35756;52.346;13.622;2022-09-09T11:32:31;3.30;;;1.55;;
49858;SDS011;35756;52.346;13.622;2022-09-09T11:35:22;6.10;;;1.52;;
49858;SDS011;35756;52.346;13.622;2022-09-09T11:40:46;4.85;;;1.60;;
49858;SDS011;35756;52.346;13.622;2022-09-09T11:43:13;2.80;;;1.48;;
49858;SDS011;35756;52.346;13.622;2022-09-09T11:45:41;3.88;;;1.50;;
49858;SDS011;35756;52.346;13.622;2022-09-09T11:48:22;3.13;;;1.60;;
49858;SDS011;35756;52.346;13.622;2022-09-09T11:50:59;2.67;;;1.42;;
49858;SDS011;35756;52.346;13.622;2022-09-09T11:53:25;3.83;;;1.60;;
49858;SDS011;35756;52.346;13.622;2022-09-09T11:56:10;2.63;;;1.40;;
49858;SDS011;35756;52.346;13.622;2022-09-09T11:58:54;2.75;;;1.40;;
49858;SDS011;35756;52.346;13.622;2022-09-09T12:01:42;3.17;;;1.58;;
49858;SDS011;35756;52.346;13.622;2022-09-09T12:06:46;3.03;;;1.43;;
49858;SDS011;35756;52.346;13.622;2022-09-09T12:11:46;2.13;;;1.35;;
49858;SDS011;35756;52.346;13.622;2022-09-09T12:14:34;3.63;;;1.40;;
49858;SDS011;35756;52.346;13.622;2022-09-09T12:19:39;3.50;;;1.42;;
49858;SDS011;35756;52.346;13.622;2022-09-09T12:22:07;2.53;;;1.40;;
49858;SDS011;35756;52.346;13.622;2022-09-09T12:24:58;4.05;;;1.60;;
49858;SDS011;35756;52.346;13.622;2022-09-09T12:27:36;3.40;;;1.40;;
49858;SDS011;35756;52.346;13.622;2022-09-09T12:32:35;4.45;;;1.70;;
49858;SDS011;35756;52.346;13.622;2022-09-09T12:35:03;5.22;;;1.60;;
49858;SDS011;35756;52.346;13.622;2022-09-09T12:37:37;3.13;;;1.40;;
49858;SDS011;35756;52.346;13.622;2022-09-09T12:40:19;3.60;;;1.50;;
49858;SDS011;35756;52.346;13.622;2022-09-09T12:42:51;3.95;;;1.40;;
49858;SDS011;35756;52.346;13.622;2022-09-09T12:45:23;2.78;;;1.38;;
49858;SDS011;35756;52.346;13.622;2022-09-09T12:47:51;2.67;;;1.10;;
49858;SDS011;35756;52.346;13.622;2022-09-09T12:50:24;4.28;;;1.52;;
49858;SDS011;35756;52.346;13.622;2022-09-09T12:52:54;5.43;;;1.73;;
49858;SDS011;35756;52.346;13.622;2022-09-09T12:55:21;4.65;;;1.40;;
49858;SDS011;35756;52.346;13.622;2022-09-09T12:57:50;3.47;;;1.42;;
49858;SDS011;35756;52.346;13.622;2022-09-09T13:00:18;4.20;;;1.42;;
49858;SDS011;35756;52.346;13.622;2022-09-09T13:02:55;3.75;;;1.48;;
49858;SDS011;35756;52.346;13.622;2022-09-09T13:07:51;1.73;;;1.20;;
49858;SDS011;35756;52.346;13.622;2022-09-09T13:10:21;5.03;;;1.77;;
49858;SDS011;35756;52.346;13.622;2022-09-09T13:12:51;3.08;;;1.17;;
49858;SDS011;35756;52.346;13.622;2022-09-09T13:15:20;3.17;;;1.35;;
49858;SDS011;35756;52.346;13.622;2022-09-09T13:17:51;3.78;;;1.30;;
49858;SDS011;35756;52.346;13.622;2022-09-09T13:20:21;2.58;;;1.35;;
49858;SDS011;35756;52.346;13.622;2022-09-09T13:22:47;4.53;;;1.50;;
49858;SDS011;35756;52.346;13.622;2022-09-09T13:25:25;5.45;;;1.40;;
49858;SDS011;35756;52.346;13.622;2022-09-09T13:27:56;3.65;;;1.42;;
49858;SDS011;35756;52.346;13.622;2022-09-09T13:30:35;2.65;;;1.38;;
49858;SDS011;35756;52.346;13.622;2022-09-09T13:33:06;2.42;;;1.50;;
49858;SDS011;35756;52.346;13.622;2022-09-09T13:36:07;4.32;;;1.70;;
49858;SDS011;35756;52.346;13.622;2022-09-09T13:38:36;4.75;;;1.50;;
49858;SDS011;35756;52.346;13.622;2022-09-09T13:41:07;3.90;;;1.58;;
49858;SDS011;35756;52.346;13.622;2022-09-09T13:43:38;2.45;;;1.45;;
49858;SDS011;35756;52.346;13.622;2022-09-09T13:46:24;3.08;;;1.50;;
49858;SDS011;35756;52.346;13.622;2022-09-09T13:51:43;3.92;;;1.50;;
49858;SDS011;35756;52.346;13.622;2022-09-09T13:54:12;2.30;;;1.33;;
49858;SDS011;35756;52.346;13.622;2022-09-09T13:56:39;3.50;;;1.40;;
49858;SDS011;35756;52.346;13.622;2022-09-09T13:59:06;3.33;;;1.33;;
49858;SDS011;35756;52.346;13.622;2022-09-09T14:01:35;3.13;;;1.40;;
49858;SDS011;35756;52.346;13.622;2022-09-09T14:04:00;2.35;;;1.50;;
49858;SDS011;35756;52.346;13.622;2022-09-09T14:06:25;3.25;;;1.30;;
49858;SDS011;35756;52.346;13.622;2022-09-09T14:08:51;4.00;;;1.30;;
49858;SDS011;35756;52.346;13.622;2022-09-09T14:11:17;3.80;;;1.30;;
49858;SDS011;35756;52.346;13.622;2022-09-09T14:13:43;4.28;;;1.63;;
49858;SDS011;35756;52.346;13.622;2022-09-09T14:16:08;3.08;;;1.25;;
49858;SDS011;35756;52.346;13.622;2022-09-09T14:18:34;2.50;;;1.40;;
49858;SDS011;35756;52.346;13.622;2022-09-09T14:20:59;3.35;;;1.23;;
49858;SDS011;35756;52.346;13.622;2022-09-09T14:23:25;3.92;;;1.58;;
49858;SDS011;35756;52.346;13.622;2022-09-09T14:25:50;4.25;;;1.50;;
49858;SDS011;35756;52.346;13.622;2022-09-09T14:28:16;4.70;;;1.50;;
49858;SDS011;35756;52.346;13.622;2022-09-09T14:30:43;2.85;;;1.40;;
49858;SDS011;35756;52.346;13.622;2022-09-09T14:33:10;4.18;;;1.40;;
49858;SDS011;35756;52.346;13.622;2022-09-09T14:35:36;2.75;;;1.27;;
49858;SDS011;35756;52.346;13.622;2022-09-09T14:38:02;3.70;;;1.40;;
49858;SDS011;35756;52.346;13.622;2022-09-09T14:40:28;4.28;;;1.50;;
49858;SDS011;35756;52.346;13.622;2022-09-09T14:42:53;3.55;;;1.50;;
49858;SDS011;35756;52.346;13.622;2022-09-09T14:45:19;3.25;;;1.38;;
49858;SDS011;35756;52.346;13.622;2022-09-09T14:47:46;3.42;;;1.30;;
49858;SDS011;35756;52.346;13.622;2022-09-09T14:50:11;2.75;;;1.17;;
49858;SDS011;35756;52.346;13.622;2022-09-09T14:52:37;2.90;;;1.27;;
49858;SDS011;35756;52.346;13.622;2022-09-09T14:55:03;5.38;;;1.50;;
49858;SDS011;35756;52.346;13.622;2022-09-09T14:57:28;4.25;;;1.50;;
49858;SDS011;35756;52.346;13.622;2022-09-09T14:59:53;4.07;;;1.40;;
49858;SDS011;35756;52.346;13.622;2022-09-09T15:02:19;5.55;;;1.55;;
49858;SDS011;35756;52.346;13.622;2022-09-09T15:04:44;4.70;;;1.73;;
49858;SDS011;35756;52.346;13.622;2022-09-09T15:07:10;2.83;;;1.60;;
49858;SDS011;35756;52.346;13.622;2022-09-09T15:09:36;3.80;;;1.42;;
49858;SDS011;35756;52.346;13.622;2022-09-09T15:12:02;4.00;;;1.50;;
49858;SDS011;35756;52.346;13.622;2022-09-09T15:14:27;3.83;;;1.48;;
49858;SDS011;35756;52.346;13.622;2022-09-09T15:16:53;4.70;;;1.48;;
49858;SDS011;35756;52.346;13.622;2022-09-09T15:19:18;5.10;;;1.42;;
49858;SDS011;35756;52.346;13.622;2022-09-09T15:21:43;3.50;;;1.42;;
49858;SDS011;35756;52.346;13.622;2022-09-09T15:24:09;4.97;;;1.70;;
49858;SDS011;35756;52.346;13.622;2022-09-09T15:26:35;3.53;;;1.50;;
49858;SDS011;35756;52.346;13.622;2022-09-09T15:29:03;3.72;;;1.55;;
49858;SDS011;35756;52.346;13.622;2022-09-09T15:31:29;4.53;;;1.50;;
49858;SDS011;35756;52.346;13.622;2022-09-09T15:33:59;5.13;;;1.60;;
49858;SDS011;35756;52.346;13.622;2022-09-09T15:36:27;4.65;;;1.73;;
49858;SDS011;35756;52.346;13.622;2022-09-09T15:38:54;4.65;;;1.77;;
49858;SDS011;35756;52.346;13.622;2022-09-09T15:41:20;3.78;;;1.70;;
49858;SDS011;35756;52.346;13.622;2022-09-09T15:43:47;2.47;;;1.30;;
49858;SDS011;35756;52.346;13.622;2022-09-09T15:46:31;6.15;;;1.60;;
49858;SDS011;35756;52.346;13.622;2022-09-09T15:48:58;4.45;;;1.52;;
49858;SDS011;35756;52.346;13.622;2022-09-09T15:51:29;5.88;;;1.90;;
49858;SDS011;35756;52.346;13.622;2022-09-09T15:53:55;1.77;;;1.05;;
49858;SDS011;35756;52.346;13.622;2022-09-09T15:56:21;3.80;;;1.48;;
49858;SDS011;35756;52.346;13.622;2022-09-09T15:58:47;1.80;;;1.20;;
49858;SDS011;35756;52.346;13.622;2022-09-09T16:01:12;2.40;;;1.42;;
49858;SDS011;35756;52.346;13.622;2022-09-09T16:03:39;4.00;;;1.50;;
49858;SDS011;35756;52.346;13.622;2022-09-09T16:06:11;3.25;;;1.35;;
49858;SDS011;35756;52.346;13.622;2022-09-09T16:08:38;3.72;;;1.48;;
49858;SDS011;35756;52.346;13.622;2022-09-09T16:11:05;5.13;;;1.48;;
49858;SDS011;35756;52.346;13.622;2022-09-09T16:13:37;3.17;;;1.30;;
49858;SDS011;35756;52.346;13.622;2022-09-09T16:16:04;4.28;;;1.23;;